^^
Datos históricos de la estación: Murcia-Puente Tocinos
 
Diario Informe para Marzo 27, 2019 Unidades:  Métrico    Inglés   Ambas
Diario Semanal Mensual Anual Configurable
  Actual: Máximo: Mínimo: Media:
Temperatura: 9.8 °C 11.7 °C 9.8 °C 10.8 °C
Punto de rocio: 4.8 °C 7.4 °C 4.3 °C 5.9 °C
Humedad: 71% 75% 66% 72%
Velocidad viento: 3.2km/h 5.8km/h 0.0km/h 2.5km/h
Racha viento: 8.0km/h 9.3km/h - -
VientoSSW - - South
Presión: 1021.5 hPa 1022.3 hPa 1021.5 hPa -
Precipitación: 0.0 mm      
Historical Graphs
 
 
Tabla de datos para Marzo 27, 2019
Hora Temperatura Punto de rocio Presión Viento Velocidad viento Racha viento Humedad Intensidad lluvia(por hora) Nubes
00:00 11.7 °C 7.2 °C 1021.9 hPa NE 3.2 km/h 3.2 km/h 74% 0.0 mm CLR
00:05 11.7 °C 7.4 °C 1022.1 hPa NE 2.9 km/h   75% 0.0 mm CLR
00:10 11.6 °C 7.3 °C 1022.1 hPa Calm   2.3 km/h 75% 0.0 mm CLR
00:15 11.6 °C 7.3 °C 1022.1 hPa Calm   5.6 km/h 75% 0.0 mm CLR
00:20 11.6 °C 7.3 °C 1022.1 hPa NE 2.9 km/h 3.7 km/h 75% 0.0 mm CLR
00:25 11.5 °C 7.2 °C 1022.1 hPa NE 2.9 km/h 2.3 km/h 75% 0.0 mm CLR
00:30 11.4 °C 7.1 °C 1022.1 hPa NE 2.3 km/h   75% 0.0 mm CLR
00:35 11.4 °C 6.9 °C 1022.2 hPa NE 2.3 km/h   74% 0.0 mm CLR
00:40 11.4 °C 6.9 °C 1022.2 hPa Calm     74% 0.0 mm CLR
00:45 11.3 °C 6.8 °C 1022.2 hPa Calm   3.9 km/h 74% 0.0 mm CLR
00:50 11.4 °C 6.7 °C 1022.2 hPa Calm     73% 0.0 mm CLR
00:55 11.3 °C 6.6 °C 1022.2 hPa Calm     73% 0.0 mm CLR
01:00 11.3 °C 6.4 °C 1022.2 hPa Calm     72% 0.0 mm CLR
01:05 11.3 °C 6.4 °C 1022.3 hPa Calm     72% 0.0 mm CLR
01:10 11.3 °C 6.4 °C 1022.3 hPa Calm     72% 0.0 mm CLR
01:15 11.2 °C 6.3 °C 1022.3 hPa Calm     72% 0.0 mm CLR
01:20 11.2 °C 6.3 °C 1022.3 hPa Calm     72% 0.0 mm CLR
01:25 11.1 °C 6.4 °C 1022.3 hPa Calm     73% 0.0 mm CLR
01:30 11.1 °C 6.4 °C 1022.3 hPa Calm     73% 0.0 mm CLR
01:35 11.0 °C 6.6 °C 1022.2 hPa Calm     74% 0.0 mm CLR
01:40 10.9 °C 6.4 °C 1022.2 hPa Calm     74% 0.0 mm CLR
01:45 10.9 °C 6.4 °C 1022.2 hPa Calm     74% 0.0 mm CLR
01:50 10.9 °C 6.4 °C 1022.2 hPa Calm     74% 0.0 mm CLR
01:55 10.9 °C 6.2 °C 1022.2 hPa Calm     73% 0.0 mm CLR
02:00 10.8 °C 6.2 °C 1022.2 hPa Calm   6.4 km/h 73% 0.0 mm CLR
02:05 10.7 °C 6.1 °C 1022.1 hPa Calm   5.8 km/h 73% 0.0 mm CLR
02:10 10.6 °C 5.9 °C 1022.1 hPa NE 3.9 km/h 7.4 km/h 73% 0.0 mm CLR
02:15 10.5 °C 5.7 °C 1022.1 hPa West 3.9 km/h 7.4 km/h 72% 0.0 mm CLR
02:19 10.4 °C 4.9 °C 1022.0 hPa West 4.7 km/h 7.4 km/h 69% 0.0 mm CLR
02:25 10.4 °C 4.7 °C 1022.0 hPa West 4.7 km/h 7.4 km/h 68% 0.0 mm CLR
02:30 10.4 °C 4.7 °C 1022.0 hPa West 4.7 km/h 5.8 km/h 68% 0.0 mm CLR
02:35 10.3 °C 4.4 °C 1022.0 hPa West 4.7 km/h 3.9 km/h 67% 0.0 mm CLR
02:40 10.3 °C 4.4 °C 1022.0 hPa West 3.2 km/h 5.6 km/h 67% 0.0 mm CLR
02:45 10.3 °C 4.4 °C 1022.0 hPa West 3.2 km/h 3.7 km/h 67% 0.0 mm CLR
02:50 10.4 °C 4.3 °C 1021.9 hPa West 3.2 km/h 5.6 km/h 66% 0.0 mm CLR
02:55 10.4 °C 4.6 °C 1021.9 hPa SSW 3.2 km/h 3.7 km/h 67% 0.0 mm CLR
03:00 10.4 °C 4.7 °C 1021.9 hPa SW 3.2 km/h 8.0 km/h 68% 0.0 mm CLR
03:05 10.4 °C 5.2 °C 1021.7 hPa SSW 3.9 km/h 7.4 km/h 70% 0.0 mm CLR
03:10 10.4 °C 5.6 °C 1021.7 hPa SSW 5.8 km/h 7.4 km/h 72% 0.0 mm CLR
03:15 10.3 °C 5.3 °C 1021.7 hPa SSW 5.8 km/h 7.4 km/h 71% 0.0 mm CLR
03:20 10.4 °C 5.4 °C 1021.7 hPa SSW 4.7 km/h 7.4 km/h 71% 0.0 mm CLR
03:25 10.4 °C 5.6 °C 1021.7 hPa SSW 4.7 km/h 7.4 km/h 72% 0.0 mm CLR
03:30 10.4 °C 5.6 °C 1021.7 hPa SSW 5.0 km/h 7.4 km/h 72% 0.0 mm CLR
03:35 10.3 °C 5.4 °C 1021.6 hPa SSW 5.0 km/h 5.8 km/h 72% 0.0 mm CLR
03:40 10.3 °C 5.4 °C 1021.6 hPa SSW 4.7 km/h 9.3 km/h 72% 0.0 mm CLR
03:45 10.2 °C 5.4 °C 1021.6 hPa SSW 4.7 km/h 7.4 km/h 72% 0.0 mm CLR
03:50 10.1 °C 5.3 °C 1021.5 hPa SW 5.0 km/h 7.4 km/h 72% 0.0 mm CLR
03:55 10.1 °C 5.3 °C 1021.5 hPa SSW 5.0 km/h 7.4 km/h 72% 0.0 mm CLR
04:00 9.9 °C 5.1 °C 1021.5 hPa SSW 4.8 km/h 8.0 km/h 72% 0.0 mm CLR
04:05 9.9 °C 4.9 °C 1021.5 hPa SSW 5.0 km/h 7.4 km/h 71% 0.0 mm CLR
04:10 9.8 °C 4.8 °C 1021.5 hPa SSW 3.2 km/h 8.0 km/h 71% 0.0 mm CLR
Murcia-Puente Tocinos, España
Compliments of Weather Underground - 1.5 mb

La estación de MeteoMurcia.com, publica sus datos en los siguientes proyectos:

Meteoclimatic www.awekas.at

W3Counter
Web Analytics